Green Bay, WI

6:06 PM CST en Diciembre 07, 2016 (GMT -0600)
Allouez North | | Change Station

Alt 607 ft 44.49 °N, 88.01 °W | Updated 19 seconds ago

Overcast
Nublado
24.3 ° F
Sensación térmica 17 ° F
N
5.8
Viento Variable Viento desde OSO
Gusts 8.0 mph

Hoy
Alta -- | Baja -- ° F
--% Posibilidad de precipitaciones
Ayer
Alta -- | Baja -- ° F
Precip. -- pul
Presión 30.01 pul
Visibilidad 10.0 Millas
Nubes Nublado 3100 ft
Vientos helados 17 ° F
Punto de rocío 16 ° F
Humedad 70%
Precipitaciones 0.00 pul
Espesor de la nieve No disponible.
7:15 AM 4:12 PM
Cuarto creciente, 57% visible
METAR KGRB 072353Z 25017G24KT 10SM OVC031 M03/M09 A2997 RMK AO2 PK WND 27027/2331 SLP160 T10331094 11017 21039 53017
Presión 30.01 pul
Visibilidad 10.0 Millas
Nubes Nublado 3100 ft
Vientos helados 17 ° F
Punto de rocío 16 ° F
Humedad 70%
Precipitaciones 0.00 pul
Espesor de la nieve No disponible.
7:15 AM 4:12 PM
Cuarto creciente, 57% visible
METAR KGRB 072353Z 25017G24KT 10SM OVC031 M03/M09 A2997 RMK AO2 PK WND 27027/2331 SLP160 T10331094 11017 21039 53017

10-Day Weather Forecast

Almanac

Astronomía

Dec. 07, 2016 Salida Puesta
Hora real
Crepúsculo civil
Crepúsculo náutico
Crepúsculo astronómico
Luna
Horas de luz
Horas de luz
Tomorrow will be .
, % of the Moon is Illuminated

Extremos de hoy

Máximos del estado Bajos del estado

Community

WunderPhotos

Upload Photos

1,956,221 ¡fotos cargadas!

WunderBlog® & News

Nearby

Calidad del aire

  Calidad del aire Índice AQ Contaminante
Not available.

Grosos de nieve

Estación Profundido Altura

Actividad de terremotos

Ciudad Distance Mag. Tiempo y dato
Magnitud mínima muestra es 2,5.

Temperaturas de aguas costeras

Lugar Temperatura

Stations

Estaciones meteorológicas cercanas

Ubicación de la estación Temp. Vientos helados Punto de rocío Humedad Viento Precip. Alt Actualizado Tipo
                   

Watches & Warnings

There are currently no watches in effect.